Time;durP1;ratioP1;P1;durP2;ratioP2;P2;SDS_P1;SDS_P2;PMS_P1;PMS_P2;Temp;Humidity;BMP_temperature;BMP_pressure;BME280_temperature;BME280_humidity;BME280_pressure;Samples;Min_cycle;Max_cycle;Signal;HPM_P1;HPM_P2
2021/03/24 00:02:09;;;;;;;59.13;48.00;;;;;;;;;;5116287;28;20235;-80
2021/03/24 00:04:53;;;;;;;64.37;51.57;;;;;;;;;;5117119;28;20232;-80
2021/03/24 00:07:38;;;;;;;61.73;49.37;;;;;;;;;;5115757;28;20204;-80
2021/03/24 00:10:24;;;;;;;60.67;48.93;;;;;;;;;;5116698;28;20281;-80
2021/03/24 00:13:09;;;;;;;65.17;50.63;;;;;;;;;;5116508;28;20227;-80
2021/03/24 00:15:54;;;;;;;57.47;48.90;;;;;;;;;;5115374;28;20567;-80
2021/03/24 00:18:38;;;;;;;69.70;50.97;;;;;;;;;;5117057;28;20219;-79
2021/03/24 00:21:23;;;;;;;65.70;49.67;;;;;;;;;;5119327;27;20226;-80
2021/03/24 00:24:08;;;;;;;69.97;52.17;;;;;;;;;;5131629;27;20271;-79
2021/03/24 00:26:52;;;;;;;61.77;48.40;;;;;;;;;;5136488;27;20206;-80
2021/03/24 00:29:37;;;;;;;71.43;53.87;;;;;;;;;;5136538;27;20571;-80
2021/03/24 00:32:22;;;;;;;72.63;53.60;;;;;;;;;;5134361;27;20626;-80
2021/03/24 00:35:08;;;;;;;65.83;49.90;;;;;;;;;;5116642;28;20203;-79
2021/03/24 00:37:53;;;;;;;82.63;65.97;;;;;;;;;;5115196;28;20424;-79
2021/03/24 00:40:39;;;;;;;67.43;53.60;;;;;;;;;;5116934;28;20365;-78
2021/03/24 00:43:23;;;;;;;74.17;52.37;;;;;;;;;;5117805;27;20732;-79
2021/03/24 00:46:07;;;;;;;69.57;50.73;;;;;;;;;;5116160;28;20207;-79
2021/03/24 00:48:53;;;;;;;64.57;49.30;;;;;;;;;;5135372;27;20207;-79
2021/03/24 00:51:37;;;;;;;66.53;49.50;;;;;;;;;;5127829;27;20218;-79
2021/03/24 00:54:21;;;;;;;65.10;49.23;;;;;;;;;;5116970;28;20888;-79
2021/03/24 00:57:07;;;;;;;60.00;47.47;;;;;;;;;;5115870;27;20272;-78
2021/03/24 00:59:51;;;;;;;63.57;48.70;;;;;;;;;;5115843;28;20203;-78
2021/03/24 01:02:36;;;;;;;62.37;47.30;;;;;;;;;;5125164;27;20599;-78
2021/03/24 01:05:22;;;;;;;64.47;47.43;;;;;;;;;;5135879;27;20306;-79
2021/03/24 01:08:07;;;;;;;57.23;46.63;;;;;;;;;;5120406;27;20325;-79
2021/03/24 01:10:53;;;;;;;70.20;60.60;;;;;;;;;;5124732;27;20414;-80
2021/03/24 01:13:37;;;;;;;61.37;50.00;;;;;;;;;;5116529;27;20235;-80
2021/03/24 01:16:22;;;;;;;59.70;46.43;;;;;;;;;;5112684;28;20215;-79
2021/03/24 01:19:07;;;;;;;59.17;46.10;;;;;;;;;;5130980;27;20561;-80
2021/03/24 01:21:52;;;;;;;61.67;49.27;;;;;;;;;;5134725;27;20230;-79
2021/03/24 01:24:37;;;;;;;62.30;47.07;;;;;;;;;;5135186;27;20202;-80
2021/03/24 01:27:21;;;;;;;67.03;48.53;;;;;;;;;;5132711;27;20221;-79
2021/03/24 01:30:06;;;;;;;68.20;49.37;;;;;;;;;;5124880;27;20207;-80
2021/03/24 01:32:51;;;;;;;62.23;46.93;;;;;;;;;;5134295;27;20398;-80
2021/03/24 01:35:36;;;;;;;61.73;44.83;;;;;;;;;;5114182;28;20237;-79
2021/03/24 01:38:21;;;;;;;74.87;47.57;;;;;;;;;;5114747;28;20949;-79
2021/03/24 01:41:06;;;;;;;118.60;48.43;;;;;;;;;;5113538;28;20277;-80
2021/03/24 01:43:51;;;;;;;75.40;49.63;;;;;;;;;;5113333;28;20738;-79
2021/03/24 01:46:40;;;;;;;70.47;49.23;;;;;;;;;;5126989;27;20207;-79
2021/03/24 01:49:27;;;;;;;68.20;46.30;;;;;;;;;;5134551;27;20236;-79
2021/03/24 01:52:11;;;;;;;65.80;47.10;;;;;;;;;;5133621;27;20218;-80
2021/03/24 01:54:57;;;;;;;70.40;47.83;;;;;;;;;;5133589;27;20206;-80
2021/03/24 01:57:41;;;;;;;68.63;46.63;;;;;;;;;;5132042;27;20202;-75
2021/03/24 02:00:28;;;;;;;75.87;48.43;;;;;;;;;;5132174;27;20651;-75
2021/03/24 02:03:13;;;;;;;84.80;48.77;;;;;;;;;;5124325;27;20218;-75
2021/03/24 02:05:59;;;;;;;89.77;50.47;;;;;;;;;;5116662;27;20218;-75
2021/03/24 02:08:46;;;;;;;114.88;55.92;;;;;;;;;;5115441;27;20405;-75
2021/03/24 02:11:33;;;;;;;83.13;51.10;;;;;;;;;;5132072;27;20244;-75
2021/03/24 02:14:21;;;;;;;140.53;51.90;;;;;;;;;;5132075;27;20565;-75
2021/03/24 02:17:06;;;;;;;429.00;67.70;;;;;;;;;;5131385;27;20206;-75
2021/03/24 02:19:53;;;;;;;354.10;58.13;;;;;;;;;;5131969;27;20199;-75
2021/03/24 02:22:40;;;;;;;854.03;81.37;;;;;;;;;;5112732;27;20234;-75
2021/03/24 02:25:30;;;;;;;1255.50;103.47;;;;;;;;;;5110995;28;20195;-75
2021/03/24 02:28:15;;;;;;;935.10;86.07;;;;;;;;;;5110986;28;20678;-75
2021/03/24 02:31:00;;;;;;;816.50;72.80;;;;;;;;;;5110971;28;20295;-76
2021/03/24 02:33:44;;;;;;;828.60;85.73;;;;;;;;;;5114840;28;20825;-77
2021/03/24 02:36:29;;;;;;;1074.50;86.07;;;;;;;;;;5118896;27;20329;-80
2021/03/24 02:39:15;;;;;;;990.17;95.23;;;;;;;;;;5123699;28;20208;-79
2021/03/24 02:42:01;;;;;;;711.63;73.60;;;;;;;;;;5110212;28;20231;-75
2021/03/24 02:44:46;;;;;;;843.70;74.03;;;;;;;;;;5110771;28;20194;-75
2021/03/24 02:47:31;;;;;;;920.73;91.40;;;;;;;;;;5127357;28;20256;-75
2021/03/24 02:50:16;;;;;;;989.37;92.60;;;;;;;;;;5130433;28;20202;-75
2021/03/24 02:53:01;;;;;;;577.33;69.50;;;;;;;;;;5114457;28;20215;-75
2021/03/24 02:55:46;;;;;;;545.17;64.83;;;;;;;;;;5111479;28;20191;-75
2021/03/24 02:58:31;;;;;;;416.87;54.80;;;;;;;;;;5111203;27;20200;-75
2021/03/24 03:01:18;;;;;;;370.13;53.37;;;;;;;;;;5131485;28;20218;-75
2021/03/24 03:04:06;;;;;;;447.10;59.47;;;;;;;;;;5128481;28;20217;-75
2021/03/24 03:06:51;;;;;;;415.50;49.90;;;;;;;;;;5123164;28;20676;-75
2021/03/24 03:09:42;;;;;;;528.83;54.33;;;;;;;;;;5131594;28;20198;-75
2021/03/24 03:12:31;;;;;;;427.80;48.43;;;;;;;;;;5131355;28;20254;-76
2021/03/24 03:15:19;;;;;;;391.07;54.67;;;;;;;;;;5119553;28;20207;-76
2021/03/24 03:18:08;;;;;;;487.03;62.93;;;;;;;;;;5127073;28;20215;-76
2021/03/24 03:20:53;;;;;;;398.43;55.67;;;;;;;;;;5110864;28;20261;-75
2021/03/24 03:23:39;;;;;;;321.70;47.53;;;;;;;;;;5119248;28;20647;-75
2021/03/24 03:26:24;;;;;;;466.33;59.90;;;;;;;;;;5130820;28;20242;-75
2021/03/24 03:29:10;;;;;;;529.58;61.72;;;;;;;;;;5117124;28;20378;-75
2021/03/24 03:31:54;;;;;;;586.53;68.70;;;;;;;;;;5125023;28;20199;-75
2021/03/24 03:34:42;;;;;;;567.13;64.20;;;;;;;;;;5123774;28;20708;-75
2021/03/24 03:37:27;;;;;;;412.40;48.73;;;;;;;;;;5130000;27;20199;-75
2021/03/24 03:40:13;;;;;;;609.43;71.97;;;;;;;;;;5114607;28;20309;-75
2021/03/24 03:42:58;;;;;;;617.63;78.50;;;;;;;;;;5114089;28;21096;-75
2021/03/24 03:45:43;;;;;;;502.43;68.20;;;;;;;;;;5114354;28;20221;-76
2021/03/24 03:48:28;;;;;;;447.60;64.20;;;;;;;;;;5123052;27;20206;-75
2021/03/24 03:51:18;;;;;;;450.07;59.60;;;;;;;;;;5134859;27;20232;-76
2021/03/24 03:54:07;;;;;;;476.57;60.50;;;;;;;;;;5119494;27;20253;-75
2021/03/24 03:56:58;;;;;;;536.77;76.73;;;;;;;;;;5113680;28;20273;-75
2021/03/24 03:59:45;;;;;;;519.27;58.70;;;;;;;;;;5114576;27;20257;-75
2021/03/24 04:02:31;;;;;;;548.10;68.73;;;;;;;;;;5114688;27;20357;-75
2021/03/24 04:05:18;;;;;;;1020.10;97.57;;;;;;;;;;5133581;27;20210;-75
2021/03/24 04:08:06;;;;;;;491.80;66.70;;;;;;;;;;5132262;27;20697;-75
2021/03/24 04:10:52;;;;;;;310.60;55.50;;;;;;;;;;5134355;27;20245;-76
2021/03/24 04:13:40;;;;;;;282.70;50.67;;;;;;;;;;5121568;27;20227;-76
2021/03/24 04:16:26;;;;;;;427.02;77.15;;;;;;;;;;5112663;28;20455;-75
2021/03/24 04:19:11;;;;;;;1003.50;113.03;;;;;;;;;;5114159;27;20253;-76
2021/03/24 04:21:59;;;;;;;358.50;54.53;;;;;;;;;;5113331;28;20231;-76
2021/03/24 04:24:46;;;;;;;749.93;86.73;;;;;;;;;;5113675;28;20199;-75
2021/03/24 04:27:33;;;;;;;422.57;61.70;;;;;;;;;;5114133;27;20233;-75
2021/03/24 04:30:20;;;;;;;520.60;95.80;;;;;;;;;;5112990;28;20418;-75
2021/03/24 04:33:04;;;;;;;429.40;66.83;;;;;;;;;;5113598;27;20234;-74
2021/03/24 04:35:49;;;;;;;176.10;42.37;;;;;;;;;;5113119;28;20204;-75
2021/03/24 04:38:36;;;;;;;218.83;46.77;;;;;;;;;;5116180;27;20208;-75
2021/03/24 04:41:22;;;;;;;395.57;55.07;;;;;;;;;;5113024;28;20223;-75
2021/03/24 04:44:10;;;;;;;242.90;46.73;;;;;;;;;;5113430;27;20225;-75
2021/03/24 04:46:56;;;;;;;191.77;38.27;;;;;;;;;;5112623;28;20207;-75
2021/03/24 04:49:43;;;;;;;434.60;54.90;;;;;;;;;;5113453;27;20676;-75
2021/03/24 04:52:28;;;;;;;435.40;56.30;;;;;;;;;;5112762;27;20242;-75
2021/03/24 04:55:14;;;;;;;112.10;36.00;;;;;;;;;;5113265;28;20245;-75
2021/03/24 04:58:01;;;;;;;93.17;38.30;;;;;;;;;;5112439;27;20199;-75
2021/03/24 05:00:48;;;;;;;117.40;42.47;;;;;;;;;;5112910;28;20249;-75
2021/03/24 05:03:35;;;;;;;56.85;41.03;;;;;;;;;;5123545;27;20941;-75
2021/03/24 05:06:22;;;;;;;135.20;41.67;;;;;;;;;;5132605;27;20220;-75
2021/03/24 05:09:08;;;;;;;61.77;38.40;;;;;;;;;;5127205;27;20604;-75
2021/03/24 05:11:57;;;;;;;46.93;36.40;;;;;;;;;;5133229;27;20217;-75
2021/03/24 05:14:44;;;;;;;44.53;33.33;;;;;;;;;;5113482;27;20306;-75
2021/03/24 05:17:30;;;;;;;72.37;50.90;;;;;;;;;;5111337;28;20571;-75
2021/03/24 05:20:17;;;;;;;140.57;49.10;;;;;;;;;;5112473;28;20438;-76
2021/03/24 05:23:05;;;;;;;48.53;35.90;;;;;;;;;;5112603;27;20227;-75
2021/03/24 05:25:53;;;;;;;51.67;37.73;;;;;;;;;;5112312;28;20218;-75
2021/03/24 05:28:39;;;;;;;61.23;39.03;;;;;;;;;;5112181;27;20206;-75
2021/03/24 05:31:26;;;;;;;50.60;37.73;;;;;;;;;;5112335;28;20707;-75
2021/03/24 05:34:13;;;;;;;50.17;36.60;;;;;;;;;;5127280;27;20284;-75
2021/03/24 05:36:59;;;;;;;47.50;35.83;;;;;;;;;;5132356;27;20236;-75
2021/03/24 05:39:44;;;;;;;42.73;33.83;;;;;;;;;;5113088;27;20244;-76
2021/03/24 05:42:36;;;;;;;47.33;34.80;;;;;;;;;;5112801;27;20239;-75
2021/03/24 05:45:39;;;;;;;36.97;32.33;;;;;;;;;;5128668;27;20577;-75
2021/03/24 05:48:30;;;;;;;38.27;32.73;;;;;;;;;;5130058;27;20198;-75
2021/03/24 05:51:23;;;;;;;37.77;31.87;;;;;;;;;;5136847;27;20275;-73
2021/03/24 05:54:26;;;;;;;51.95;46.28;;;;;;;;;;5151698;27;20475;-77
2021/03/24 05:57:31;;;;;;;42.03;35.10;;;;;;;;;;5152384;27;20761;-77
2021/03/24 06:00:24;;;;;;;38.70;33.27;;;;;;;;;;5152482;27;20194;-77
2021/03/24 06:03:16;;;;;;;42.23;33.23;;;;;;;;;;5153063;27;20245;-77
2021/03/24 06:06:16;;;;;;;47.22;40.53;;;;;;;;;;5152174;27;20397;-77
2021/03/24 06:09:15;;;;;;;44.97;36.33;;;;;;;;;;5149472;27;20210;-77
2021/03/24 06:12:12;;;;;;;43.23;36.33;;;;;;;;;;5121934;27;20295;-77
2021/03/24 06:15:16;;;;;;;41.33;34.83;;;;;;;;;;5131084;27;20576;-77
2021/03/24 06:18:16;;;;;;;44.17;35.77;;;;;;;;;;5111217;28;20260;-77
2021/03/24 06:21:04;;;;;;;48.07;38.17;;;;;;;;;;5111439;28;20220;-77
2021/03/24 06:24:04;;;;;;;47.70;38.10;;;;;;;;;;5111376;28;20208;-77
2021/03/24 06:27:10;;;;;;;48.43;38.07;;;;;;;;;;5116093;28;20265;-77
2021/03/24 06:30:03;;;;;;;51.53;39.10;;;;;;;;;;5131807;27;20198;-77
2021/03/24 06:32:53;;;;;;;52.83;40.53;;;;;;;;;;5129731;27;20230;-77
2021/03/24 06:35:54;;;;;;;52.97;39.77;;;;;;;;;;5131586;28;20255;-78
2021/03/24 06:38:50;;;;;;;59.23;45.27;;;;;;;;;;5111231;28;20203;-78
2021/03/24 06:41:49;;;;;;;53.53;43.70;;;;;;;;;;5117240;28;20838;-78
2021/03/24 06:44:51;;;;;;;56.57;45.43;;;;;;;;;;5121036;28;20249;-79
2021/03/24 06:47:39;;;;;;;52.93;42.60;;;;;;;;;;5110710;28;20277;-78
2021/03/24 06:50:43;;;;;;;50.33;41.33;;;;;;;;;;5123015;28;20207;-78
2021/03/24 06:53:43;;;;;;;46.43;39.77;;;;;;;;;;5131488;28;20222;-78
2021/03/24 06:56:36;;;;;;;58.10;51.77;;;;;;;;;;5129779;28;20464;-78
2021/03/24 06:59:36;;;;;;;50.07;41.07;;;;;;;;;;5131649;27;20206;-78
2021/03/24 07:02:48;;;;;;;53.80;43.77;;;;;;;;;;5131166;28;20270;-76
2021/03/24 07:05:40;;;;;;;48.83;43.63;;;;;;;;;;5102836;27;20259;-79
2021/03/24 07:08:39;;;;;;;53.80;43.23;;;;;;;;;;5131717;28;20223;-77
2021/03/24 07:11:33;;;;;;;54.07;45.00;;;;;;;;;;5132389;27;20232;-78
2021/03/24 07:14:36;;;;;;;49.47;43.33;;;;;;;;;;5135598;27;20213;-76
2021/03/24 07:17:44;;;;;;;52.63;44.70;;;;;;;;;;5114351;28;20209;-75
2021/03/24 07:20:52;;;;;;;52.47;46.17;;;;;;;;;;5114820;27;20269;-75
2021/03/24 07:23:56;;;;;;;54.87;47.47;;;;;;;;;;5116283;27;20712;-74
2021/03/24 07:27:00;;;;;;;60.30;53.67;;;;;;;;;;5129083;27;20448;-76
2021/03/24 07:29:56;;;;;;;59.23;48.77;;;;;;;;;;5115891;27;20952;-76
2021/03/24 07:32:45;;;;;;;59.73;51.60;;;;;;;;;;5132218;27;20272;-78
2021/03/24 07:35:34;;;;;;;63.67;53.30;;;;;;;;;;5126387;27;20748;-76
2021/03/24 07:38:46;;;;;;;68.07;56.10;;;;;;;;;;5113914;28;20238;-77
2021/03/24 07:41:51;;;;;;;61.17;54.37;;;;;;;;;;5114163;27;20227;-77
2021/03/24 07:44:50;;;;;;;68.85;61.15;;;;;;;;;;5113582;27;20404;-77
2021/03/24 07:47:51;;;;;;;68.63;56.17;;;;;;;;;;5113655;28;20233;-77
2021/03/24 07:50:37;;;;;;;63.73;55.00;;;;;;;;;;5114152;28;20207;-80
2021/03/24 07:53:26;;;;;;;66.03;54.57;;;;;;;;;;5116235;27;20227;-80
2021/03/24 07:56:22;;;;;;;65.17;55.67;;;;;;;;;;5114193;27;20204;-77
2021/03/24 07:59:14;;;;;;;65.77;55.63;;;;;;;;;;5114115;28;20811;-78
2021/03/24 08:02:01;;;;;;;63.47;54.07;;;;;;;;;;5113720;28;20232;-79
2021/03/24 08:04:55;;;;;;;62.23;54.40;;;;;;;;;;5114778;27;20209;-75
2021/03/24 08:07:42;;;;;;;62.70;54.07;;;;;;;;;;5113383;28;20589;-79
2021/03/24 08:10:34;;;;;;;65.37;54.53;;;;;;;;;;5125067;27;20216;-78
2021/03/24 08:13:27;;;;;;;67.13;60.00;;;;;;;;;;5113253;27;20408;-76
2021/03/24 08:16:23;;;;;;;64.40;56.93;;;;;;;;;;5115085;27;20218;-78
2021/03/24 08:19:22;;;;;;;65.23;55.60;;;;;;;;;;5113687;28;20194;-77
2021/03/24 08:22:17;;;;;;;62.13;55.00;;;;;;;;;;5116958;27;20272;-77
2021/03/24 08:25:07;;;;;;;63.83;55.87;;;;;;;;;;5113958;27;20717;-75
2021/03/24 08:27:55;;;;;;;69.20;61.83;;;;;;;;;;5111361;28;20426;-74
2021/03/24 08:30:45;;;;;;;65.70;57.17;;;;;;;;;;5127319;27;20708;-74
2021/03/24 08:33:48;;;;;;;70.13;56.93;;;;;;;;;;5133925;27;20219;-77
2021/03/24 08:36:39;;;;;;;65.37;55.57;;;;;;;;;;5113639;27;20606;-74
2021/03/24 08:39:45;;;;;;;66.53;55.23;;;;;;;;;;5116316;27;20718;-75
2021/03/24 08:42:41;;;;;;;66.90;54.60;;;;;;;;;;5117643;27;20611;-74
2021/03/24 08:45:27;;;;;;;66.43;54.50;;;;;;;;;;5115441;27;20315;-76
2021/03/24 08:48:13;;;;;;;67.63;53.80;;;;;;;;;;5125389;27;20218;-77
2021/03/24 08:51:02;;;;;;;64.83;53.93;;;;;;;;;;5125300;27;20203;-76
2021/03/24 08:53:54;;;;;;;66.97;52.93;;;;;;;;;;5112737;28;20197;-76
2021/03/24 08:56:41;;;;;;;68.32;59.47;;;;;;;;;;5111400;28;20409;-76
2021/03/24 08:59:28;;;;;;;71.20;56.43;;;;;;;;;;5113566;27;20198;-76
2021/03/24 09:02:20;;;;;;;70.80;56.63;;;;;;;;;;5131162;27;20287;-74
2021/03/24 09:05:15;;;;;;;68.70;57.73;;;;;;;;;;5123574;27;20268;-73
2021/03/24 09:08:10;;;;;;;71.00;56.80;;;;;;;;;;5112086;28;20194;-73
2021/03/24 09:11:21;;;;;;;69.63;59.97;;;;;;;;;;5128717;27;20400;-72
2021/03/24 09:14:10;;;;;;;70.43;55.73;;;;;;;;;;5092202;27;20479;-77
2021/03/24 09:17:13;;;;;;;72.90;56.10;;;;;;;;;;5111831;28;20203;-76
2021/03/24 09:20:16;;;;;;;71.63;56.47;;;;;;;;;;5113965;27;20287;-74
2021/03/24 09:23:08;;;;;;;64.97;53.57;;;;;;;;;;5118571;27;20223;-74
2021/03/24 09:25:57;;;;;;;71.20;54.97;;;;;;;;;;5127000;27;20689;-73
2021/03/24 09:28:54;;;;;;;68.63;55.23;;;;;;;;;;5117478;27;20199;-73
2021/03/24 09:31:57;;;;;;;68.97;55.07;;;;;;;;;;5127863;27;20744;-73
2021/03/24 09:34:58;;;;;;;69.97;56.50;;;;;;;;;;5110179;27;20200;-72
2021/03/24 09:37:44;;;;;;;69.03;55.67;;;;;;;;;;5125781;27;20209;-73
2021/03/24 09:40:31;;;;;;;72.43;55.77;;;;;;;;;;5128309;27;20334;-74
2021/03/24 09:43:20;;;;;;;67.77;54.83;;;;;;;;;;5111054;27;20287;-73
2021/03/24 09:46:09;;;;;;;67.93;53.67;;;;;;;;;;5128348;27;20214;-76
2021/03/24 09:48:56;;;;;;;67.33;56.33;;;;;;;;;;5131361;27;20272;-76
2021/03/24 09:51:43;;;;;;;68.97;55.63;;;;;;;;;;5127807;27;20238;-76
2021/03/24 09:54:28;;;;;;;67.00;52.87;;;;;;;;;;5111724;28;20279;-73
2021/03/24 09:57:14;;;;;;;67.90;58.88;;;;;;;;;;5110157;28;20918;-74
2021/03/24 10:00:03;;;;;;;68.13;55.33;;;;;;;;;;5129047;27;20211;-75
2021/03/24 10:02:48;;;;;;;64.87;51.83;;;;;;;;;;5112196;27;20374;-75
2021/03/24 10:05:37;;;;;;;65.67;53.10;;;;;;;;;;5112005;28;20199;-75
2021/03/24 10:08:26;;;;;;;67.57;53.47;;;;;;;;;;5122782;27;20219;-75
2021/03/24 10:11:13;;;;;;;67.90;52.27;;;;;;;;;;5111209;28;20219;-76
2021/03/24 10:14:03;;;;;;;62.13;47.97;;;;;;;;;;5111664;28;20204;-74
2021/03/24 10:16:49;;;;;;;65.00;50.07;;;;;;;;;;5110438;28;20210;-74
2021/03/24 10:19:34;;;;;;;64.90;51.43;;;;;;;;;;5111219;28;20200;-76
2021/03/24 10:22:20;;;;;;;61.67;48.47;;;;;;;;;;5110929;28;20238;-76
2021/03/24 10:25:11;;;;;;;59.17;46.37;;;;;;;;;;5110214;28;20257;-77
2021/03/24 10:27:57;;;;;;;55.23;44.80;;;;;;;;;;5111000;28;20716;-77
2021/03/24 10:30:43;;;;;;;59.97;46.97;;;;;;;;;;5111330;28;20209;-77
2021/03/24 10:33:32;;;;;;;59.47;46.93;;;;;;;;;;5111083;28;20218;-76
2021/03/24 10:36:22;;;;;;;56.77;42.13;;;;;;;;;;5110677;28;20220;-73
2021/03/24 10:39:13;;;;;;;51.07;41.63;;;;;;;;;;5111051;28;20205;-75
2021/03/24 10:42:00;;;;;;;52.17;41.23;;;;;;;;;;5110625;28;20225;-73
2021/03/24 10:44:49;;;;;;;44.40;39.58;;;;;;;;;;5109789;28;25147;-72
2021/03/24 10:47:37;;;;;;;49.23;40.07;;;;;;;;;;5113560;28;20210;-71
2021/03/24 10:50:24;;;;;;;50.17;39.17;;;;;;;;;;5116372;27;20342;-71
2021/03/24 10:53:14;;;;;;;50.20;39.87;;;;;;;;;;5128535;27;20213;-71
2021/03/24 10:56:02;;;;;;;49.47;40.83;;;;;;;;;;5117065;27;20214;-71
2021/03/24 10:58:53;;;;;;;48.00;38.93;;;;;;;;;;5048400;22;20336;-75
2021/03/24 11:01:42;;;;;;;44.77;36.83;;;;;;;;;;5014738;28;20249;-75
2021/03/24 11:04:34;;;;;;;46.97;37.97;;;;;;;;;;5014560;28;20213;-75
2021/03/24 11:07:22;;;;;;;45.60;37.03;;;;;;;;;;5014636;28;20198;-76
2021/03/24 11:10:19;;;;;;;44.40;36.53;;;;;;;;;;5032418;28;20217;-73
2021/03/24 11:13:06;;;;;;;44.60;37.93;;;;;;;;;;5029131;28;20249;-73
2021/03/24 11:16:02;;;;;;;46.67;36.87;;;;;;;;;;5014272;28;20221;-73
2021/03/24 11:18:48;;;;;;;40.80;33.27;;;;;;;;;;5031930;28;20237;-74
2021/03/24 11:21:39;;;;;;;42.10;34.87;;;;;;;;;;5034057;28;20682;-73
2021/03/24 11:24:25;;;;;;;39.87;32.60;;;;;;;;;;5034143;28;20408;-74
2021/03/24 11:27:15;;;;;;;39.47;33.20;;;;;;;;;;5034599;28;20208;-74
2021/03/24 11:30:18;;;;;;;40.87;32.40;;;;;;;;;;5032956;28;20688;-75
2021/03/24 11:33:07;;;;;;;38.57;30.60;;;;;;;;;;5033917;28;20241;-74
2021/03/24 11:35:56;;;;;;;40.53;33.27;;;;;;;;;;5033799;28;20212;-74
2021/03/24 11:38:44;;;;;;;39.97;32.10;;;;;;;;;;5032128;28;20235;-72
2021/03/24 11:41:30;;;;;;;37.30;32.43;;;;;;;;;;5030662;28;20229;-74
2021/03/24 11:44:16;;;;;;;40.97;32.73;;;;;;;;;;5026396;28;20260;-73
2021/03/24 11:47:04;;;;;;;38.63;32.13;;;;;;;;;;5032135;28;20212;-73
2021/03/24 11:49:55;;;;;;;37.10;30.83;;;;;;;;;;5024533;28;20285;-78
2021/03/24 11:52:47;;;;;;;40.27;32.87;;;;;;;;;;5033424;28;20551;-75
2021/03/24 11:55:36;;;;;;;39.73;32.17;;;;;;;;;;5013891;28;20214;-75
2021/03/24 11:58:28;;;;;;;41.83;32.80;;;;;;;;;;5020415;28;20214;-74
2021/03/24 12:01:40;;;;;;;38.20;33.95;;;;;;;;;;5031558;28;21149;-74
2021/03/24 12:04:34;;;;;;;38.77;30.73;;;;;;;;;;5018659;28;20230;-74
2021/03/24 12:07:23;;;;;;;36.40;30.57;;;;;;;;;;5032187;28;20623;-74
2021/03/24 12:10:26;;;;;;;37.87;30.37;;;;;;;;;;5032514;28;20206;-75
2021/03/24 12:13:12;;;;;;;39.17;32.17;;;;;;;;;;5016394;28;20334;-74
2021/03/24 12:16:02;;;;;;;38.57;32.50;;;;;;;;;;5031996;28;20205;-74
2021/03/24 12:18:47;;;;;;;37.80;31.60;;;;;;;;;;5032452;28;20228;-72
2021/03/24 12:21:34;;;;;;;36.60;29.43;;;;;;;;;;5032570;28;20591;-72
2021/03/24 12:24:23;;;;;;;35.63;28.50;;;;;;;;;;5031499;28;20823;-72
2021/03/24 12:27:09;;;;;;;39.73;30.33;;;;;;;;;;5031238;28;20337;-74
2021/03/24 12:29:56;;;;;;;34.37;29.27;;;;;;;;;;5030825;28;20260;-68
2021/03/24 12:32:41;;;;;;;33.27;27.43;;;;;;;;;;5030321;28;20206;-68
2021/03/24 12:35:27;;;;;;;33.87;27.47;;;;;;;;;;5031304;28;20285;-71
2021/03/24 12:38:13;;;;;;;30.80;26.30;;;;;;;;;;5029741;28;20202;-68
2021/03/24 12:40:59;;;;;;;35.50;27.33;;;;;;;;;;5016109;28;20595;-66
2021/03/24 12:43:48;;;;;;;32.37;28.43;;;;;;;;;;5018003;28;20214;-66
2021/03/24 12:46:32;;;;;;;34.97;31.27;;;;;;;;;;5029700;28;20473;-66
2021/03/24 12:49:18;;;;;;;37.73;30.00;;;;;;;;;;5023816;28;20264;-67
2021/03/24 12:52:08;;;;;;;34.03;27.53;;;;;;;;;;5031448;28;20237;-66
2021/03/24 12:54:53;;;;;;;35.20;29.23;;;;;;;;;;5027424;28;20209;-66
2021/03/24 12:57:41;;;;;;;32.20;26.07;;;;;;;;;;5029945;28;20213;-66
2021/03/24 13:00:42;;;;;;;33.25;29.33;;;;;;;;;;5030946;28;20947;-67
2021/03/24 13:03:57;;;;;;;29.63;25.17;;;;;;;;;;5030448;28;20332;-66
2021/03/24 13:06:59;;;;;;;29.03;24.47;;;;;;;;;;4967104;28;20216;-67
2021/03/24 13:09:48;;;;;;;33.63;26.37;;;;;;;;;;5030662;28;20684;-70
2021/03/24 13:12:39;;;;;;;31.77;27.40;;;;;;;;;;5033329;28;20197;-69
2021/03/24 13:15:27;;;;;;;29.90;26.70;;;;;;;;;;5011953;28;20214;-67
2021/03/24 13:18:17;;;;;;;26.60;23.87;;;;;;;;;;5038054;28;20740;-72
2021/03/24 13:21:20;;;;;;;29.70;24.33;;;;;;;;;;5032175;28;20218;-67
2021/03/24 13:24:14;;;;;;;31.33;26.23;;;;;;;;;;5031138;28;20255;-68
2021/03/24 13:27:01;;;;;;;35.73;27.33;;;;;;;;;;5032035;28;20219;-68
2021/03/24 13:29:48;;;;;;;32.63;25.93;;;;;;;;;;5030996;28;20775;-68
2021/03/24 13:32:38;;;;;;;33.77;25.77;;;;;;;;;;5031765;28;20205;-68
2021/03/24 13:35:27;;;;;;;30.43;25.70;;;;;;;;;;5031956;28;20238;-68
2021/03/24 13:38:18;;;;;;;32.80;26.37;;;;;;;;;;5031090;28;20265;-68
2021/03/24 13:41:04;;;;;;;33.37;27.43;;;;;;;;;;5031510;28;20214;-67
2021/03/24 13:43:53;;;;;;;32.20;27.27;;;;;;;;;;5031177;28;20692;-68
2021/03/24 13:46:42;;;;;;;32.05;28.65;;;;;;;;;;5028252;28;20967;-67
2021/03/24 13:49:32;;;;;;;32.20;27.37;;;;;;;;;;5030468;28;20202;-68
2021/03/24 13:52:43;;;;;;;34.73;28.33;;;;;;;;;;5027536;28;20233;-67
2021/03/24 13:55:45;;;;;;;29.00;23.43;;;;;;;;;;5012801;28;20728;-67
2021/03/24 13:58:47;;;;;;;34.33;25.20;;;;;;;;;;5008836;28;20314;-67
2021/03/24 14:01:37;;;;;;;29.87;26.67;;;;;;;;;;5009469;28;20735;-67
2021/03/24 14:04:28;;;;;;;30.40;26.17;;;;;;;;;;5009746;28;20563;-68
2021/03/24 14:07:18;;;;;;;32.27;26.37;;;;;;;;;;5011069;28;20206;-68
2021/03/24 14:10:06;;;;;;;30.17;24.70;;;;;;;;;;5027625;28;20218;-67
2021/03/24 14:13:02;;;;;;;34.30;27.97;;;;;;;;;;5031316;28;20205;-67
2021/03/24 14:15:50;;;;;;;32.37;26.00;;;;;;;;;;5011392;28;20231;-67
2021/03/24 14:18:43;;;;;;;29.57;23.00;;;;;;;;;;5021291;28;20699;-68
2021/03/24 14:21:37;;;;;;;27.30;23.53;;;;;;;;;;5029728;28;20230;-68
2021/03/24 14:24:40;;;;;;;24.40;21.77;;;;;;;;;;5027719;28;20263;-68
2021/03/24 14:27:27;;;;;;;30.23;26.93;;;;;;;;;;5030126;28;20197;-68
2021/03/24 14:30:13;;;;;;;30.15;26.85;;;;;;;;;;5030315;28;20534;-67
2021/03/24 14:33:04;;;;;;;28.97;25.50;;;;;;;;;;5029942;28;20245;-69
2021/03/24 14:35:53;;;;;;;29.43;25.13;;;;;;;;;;5029787;28;20692;-67
2021/03/24 14:38:54;;;;;;;30.13;26.93;;;;;;;;;;5021105;28;20257;-68
2021/03/24 14:41:42;;;;;;;26.63;23.73;;;;;;;;;;5030174;28;20249;-67
2021/03/24 14:44:45;;;;;;;32.73;29.27;;;;;;;;;;5030549;28;20249;-68
2021/03/24 14:47:34;;;;;;;28.33;24.20;;;;;;;;;;5030038;28;20217;-68
2021/03/24 14:50:24;;;;;;;30.23;25.73;;;;;;;;;;5030314;28;20226;-68
2021/03/24 14:53:26;;;;;;;31.03;26.20;;;;;;;;;;5030164;28;20202;-68
2021/03/24 14:56:24;;;;;;;30.67;26.07;;;;;;;;;;5029654;28;20210;-68
2021/03/24 14:59:30;;;;;;;26.97;24.03;;;;;;;;;;5030051;28;20217;-68
2021/03/24 15:02:30;;;;;;;30.60;25.67;;;;;;;;;;5019538;28;20695;-68
2021/03/24 15:05:34;;;;;;;31.47;27.90;;;;;;;;;;5029652;28;20641;-68
2021/03/24 15:08:21;;;;;;;31.87;26.37;;;;;;;;;;5012548;28;20576;-68
2021/03/24 15:11:08;;;;;;;32.37;26.47;;;;;;;;;;5023818;28;20280;-68
2021/03/24 15:14:04;;;;;;;30.67;26.13;;;;;;;;;;5049986;28;20251;-68
2021/03/24 15:16:53;;;;;;;30.40;25.80;;;;;;;;;;5049861;28;20959;-67
2021/03/24 15:19:44;;;;;;;29.50;26.07;;;;;;;;;;5010541;28;20230;-68
2021/03/24 15:22:36;;;;;;;30.03;26.53;;;;;;;;;;5012319;28;20223;-68
2021/03/24 15:25:23;;;;;;;29.43;26.10;;;;;;;;;;5021424;28;20202;-68
2021/03/24 15:28:12;;;;;;;29.67;26.50;;;;;;;;;;5009919;28;20207;-68
2021/03/24 15:31:13;;;;;;;29.90;25.70;;;;;;;;;;5028919;28;20258;-68
2021/03/24 15:34:00;;;;;;;29.77;24.43;;;;;;;;;;5033483;28;20870;-68
2021/03/24 15:36:48;;;;;;;30.07;25.40;;;;;;;;;;5032934;28;20298;-68
2021/03/24 15:39:34;;;;;;;28.77;25.00;;;;;;;;;;5033204;28;20353;-68
2021/03/24 15:42:22;;;;;;;32.43;26.77;;;;;;;;;;5021709;28;20230;-68
2021/03/24 15:45:10;;;;;;;33.20;26.97;;;;;;;;;;5013854;28;20234;-68
2021/03/24 15:47:56;;;;;;;29.73;25.97;;;;;;;;;;5032197;28;20253;-68
2021/03/24 15:50:43;;;;;;;29.17;24.23;;;;;;;;;;5033199;28;20360;-68
2021/03/24 15:53:41;;;;;;;32.73;26.53;;;;;;;;;;5033705;28;20252;-68
2021/03/24 15:56:34;;;;;;;31.67;26.27;;;;;;;;;;5031352;28;20310;-67
2021/03/24 15:59:25;;;;;;;31.53;25.87;;;;;;;;;;5033496;28;20252;-68
2021/03/24 16:02:27;;;;;;;30.17;26.92;;;;;;;;;;5033034;28;20813;-68
2021/03/24 16:05:20;;;;;;;28.00;24.40;;;;;;;;;;5030757;28;20560;-69
2021/03/24 16:08:15;;;;;;;31.50;27.17;;;;;;;;;;5032765;28;20253;-67
2021/03/24 16:11:06;;;;;;;29.70;24.93;;;;;;;;;;5021511;28;20218;-71
2021/03/24 16:13:56;;;;;;;33.93;25.93;;;;;;;;;;5031799;28;22070;-70
2021/03/24 16:16:42;;;;;;;33.70;28.37;;;;;;;;;;5012856;28;20570;-70
2021/03/24 16:19:36;;;;;;;34.23;26.47;;;;;;;;;;5032655;28;20261;-68
2021/03/24 16:22:27;;;;;;;31.10;26.23;;;;;;;;;;5032956;28;20261;-68
2021/03/24 16:25:15;;;;;;;32.57;27.00;;;;;;;;;;5032019;28;20253;-71
2021/03/24 16:28:04;;;;;;;29.37;25.30;;;;;;;;;;5012910;28;20221;-72